sensor_id;sensor_type;location;lat;lon;timestamp;P1;durP1;ratioP1;P2;durP2;ratioP2
69890;SDS011;57170;43.964;21.262;2022-07-30T00:00:29;18.15;;;15.63;;
69890;SDS011;57170;43.964;21.262;2022-07-30T00:02:55;17.75;;;14.88;;
69890;SDS011;57170;43.964;21.262;2022-07-30T00:05:21;17.45;;;15.75;;
69890;SDS011;57170;43.964;21.262;2022-07-30T00:07:47;17.48;;;14.30;;
69890;SDS011;57170;43.964;21.262;2022-07-30T00:10:13;16.95;;;15.23;;
69890;SDS011;57170;43.964;21.262;2022-07-30T00:12:40;16.42;;;14.73;;
69890;SDS011;57170;43.964;21.262;2022-07-30T00:15:06;17.00;;;15.02;;
69890;SDS011;57170;43.964;21.262;2022-07-30T00:17:32;16.75;;;14.88;;
69890;SDS011;57170;43.964;21.262;2022-07-30T00:19:58;15.43;;;13.90;;
69890;SDS011;57170;43.964;21.262;2022-07-30T00:22:25;19.90;;;15.05;;
69890;SDS011;57170;43.964;21.262;2022-07-30T00:24:51;19.73;;;16.05;;
69890;SDS011;57170;43.964;21.262;2022-07-30T00:27:17;17.50;;;15.77;;
69890;SDS011;57170;43.964;21.262;2022-07-30T00:29:43;17.35;;;15.55;;
69890;SDS011;57170;43.964;21.262;2022-07-30T00:32:09;17.92;;;16.00;;
69890;SDS011;57170;43.964;21.262;2022-07-30T00:34:35;15.77;;;14.05;;
69890;SDS011;57170;43.964;21.262;2022-07-30T00:37:02;16.77;;;14.85;;
69890;SDS011;57170;43.964;21.262;2022-07-30T00:39:28;19.40;;;15.70;;
69890;SDS011;57170;43.964;21.262;2022-07-30T00:41:58;16.42;;;14.68;;
69890;SDS011;57170;43.964;21.262;2022-07-30T00:44:25;18.00;;;15.32;;
69890;SDS011;57170;43.964;21.262;2022-07-30T00:46:51;17.50;;;15.48;;
69890;SDS011;57170;43.964;21.262;2022-07-30T00:49:18;18.00;;;14.25;;
69890;SDS011;57170;43.964;21.262;2022-07-30T00:51:44;18.38;;;14.20;;
69890;SDS011;57170;43.964;21.262;2022-07-30T00:54:10;17.05;;;15.13;;
69890;SDS011;57170;43.964;21.262;2022-07-30T00:56:37;17.05;;;15.27;;
69890;SDS011;57170;43.964;21.262;2022-07-30T00:59:03;15.90;;;14.32;;
69890;SDS011;57170;43.964;21.262;2022-07-30T01:01:33;17.10;;;15.25;;
69890;SDS011;57170;43.964;21.262;2022-07-30T01:03:59;15.30;;;13.70;;
69890;SDS011;57170;43.964;21.262;2022-07-30T01:06:26;18.15;;;16.20;;
69890;SDS011;57170;43.964;21.262;2022-07-30T01:08:52;17.27;;;14.95;;
69890;SDS011;57170;43.964;21.262;2022-07-30T01:11:18;16.80;;;15.20;;
69890;SDS011;57170;43.964;21.262;2022-07-30T01:13:45;17.60;;;15.77;;
69890;SDS011;57170;43.964;21.262;2022-07-30T01:16:12;17.10;;;15.38;;
69890;SDS011;57170;43.964;21.262;2022-07-30T01:18:38;19.75;;;15.52;;
69890;SDS011;57170;43.964;21.262;2022-07-30T01:21:27;17.52;;;15.57;;
69890;SDS011;57170;43.964;21.262;2022-07-30T01:23:54;17.85;;;15.82;;
69890;SDS011;57170;43.964;21.262;2022-07-30T01:26:23;17.48;;;15.43;;
69890;SDS011;57170;43.964;21.262;2022-07-30T01:28:50;17.58;;;15.20;;
69890;SDS011;57170;43.964;21.262;2022-07-30T01:31:17;16.88;;;15.13;;
69890;SDS011;57170;43.964;21.262;2022-07-30T01:33:46;17.55;;;15.82;;
69890;SDS011;57170;43.964;21.262;2022-07-30T01:36:14;18.15;;;16.17;;
69890;SDS011;57170;43.964;21.262;2022-07-30T01:38:44;18.08;;;15.60;;
69890;SDS011;57170;43.964;21.262;2022-07-30T01:41:11;16.35;;;14.63;;
69890;SDS011;57170;43.964;21.262;2022-07-30T01:43:38;17.65;;;15.65;;
69890;SDS011;57170;43.964;21.262;2022-07-30T01:46:05;16.90;;;15.07;;
69890;SDS011;57170;43.964;21.262;2022-07-30T01:48:32;17.45;;;14.90;;
69890;SDS011;57170;43.964;21.262;2022-07-30T01:51:00;16.98;;;15.30;;
69890;SDS011;57170;43.964;21.262;2022-07-30T01:53:28;18.30;;;16.50;;
69890;SDS011;57170;43.964;21.262;2022-07-30T01:55:55;19.13;;;17.20;;
69890;SDS011;57170;43.964;21.262;2022-07-30T01:58:23;21.92;;;15.82;;
69890;SDS011;57170;43.964;21.262;2022-07-30T02:00:51;17.00;;;15.15;;
69890;SDS011;57170;43.964;21.262;2022-07-30T02:03:19;17.85;;;15.23;;
69890;SDS011;57170;43.964;21.262;2022-07-30T02:05:49;19.70;;;17.52;;
69890;SDS011;57170;43.964;21.262;2022-07-30T02:10:59;18.02;;;16.08;;
69890;SDS011;57170;43.964;21.262;2022-07-30T02:13:27;18.10;;;16.20;;
69890;SDS011;57170;43.964;21.262;2022-07-30T02:16:14;18.67;;;16.55;;
69890;SDS011;57170;43.964;21.262;2022-07-30T02:21:37;19.95;;;16.50;;
69890;SDS011;57170;43.964;21.262;2022-07-30T02:24:05;17.38;;;15.65;;
69890;SDS011;57170;43.964;21.262;2022-07-30T02:26:32;18.70;;;16.38;;
69890;SDS011;57170;43.964;21.262;2022-07-30T02:29:00;17.80;;;16.02;;
69890;SDS011;57170;43.964;21.262;2022-07-30T02:31:28;19.08;;;16.80;;
69890;SDS011;57170;43.964;21.262;2022-07-30T02:33:57;19.70;;;15.93;;
69890;SDS011;57170;43.964;21.262;2022-07-30T02:36:24;17.80;;;16.02;;
69890;SDS011;57170;43.964;21.262;2022-07-30T02:38:50;18.88;;;16.88;;
69890;SDS011;57170;43.964;21.262;2022-07-30T02:41:19;18.83;;;16.00;;
69890;SDS011;57170;43.964;21.262;2022-07-30T02:43:47;18.02;;;16.10;;
69890;SDS011;57170;43.964;21.262;2022-07-30T02:46:13;17.98;;;16.08;;
69890;SDS011;57170;43.964;21.262;2022-07-30T02:48:42;18.65;;;16.65;;
69890;SDS011;57170;43.964;21.262;2022-07-30T02:51:09;18.10;;;16.20;;
69890;SDS011;57170;43.964;21.262;2022-07-30T02:53:36;18.13;;;16.33;;
69890;SDS011;57170;43.964;21.262;2022-07-30T02:56:02;17.55;;;15.75;;
69890;SDS011;57170;43.964;21.262;2022-07-30T02:58:30;17.63;;;15.80;;
69890;SDS011;57170;43.964;21.262;2022-07-30T03:00:56;22.13;;;17.63;;
69890;SDS011;57170;43.964;21.262;2022-07-30T03:03:22;19.83;;;17.77;;
69890;SDS011;57170;43.964;21.262;2022-07-30T03:05:53;18.67;;;16.67;;
69890;SDS011;57170;43.964;21.262;2022-07-30T03:08:19;18.67;;;16.80;;
69890;SDS011;57170;43.964;21.262;2022-07-30T03:10:46;19.15;;;17.30;;
69890;SDS011;57170;43.964;21.262;2022-07-30T03:13:13;19.20;;;17.20;;
69890;SDS011;57170;43.964;21.262;2022-07-30T03:15:41;17.60;;;15.80;;
69890;SDS011;57170;43.964;21.262;2022-07-30T03:18:09;19.30;;;17.25;;
69890;SDS011;57170;43.964;21.262;2022-07-30T03:20:36;20.02;;;16.77;;
69890;SDS011;57170;43.964;21.262;2022-07-30T03:23:03;18.77;;;16.73;;
69890;SDS011;57170;43.964;21.262;2022-07-30T03:25:30;20.13;;;17.42;;
69890;SDS011;57170;43.964;21.262;2022-07-30T03:27:58;20.05;;;16.48;;
69890;SDS011;57170;43.964;21.262;2022-07-30T03:30:25;21.05;;;17.05;;
69890;SDS011;57170;43.964;21.262;2022-07-30T03:32:52;19.17;;;17.27;;
69890;SDS011;57170;43.964;21.262;2022-07-30T03:35:19;21.77;;;19.58;;
69890;SDS011;57170;43.964;21.262;2022-07-30T03:37:46;22.75;;;17.48;;
69890;SDS011;57170;43.964;21.262;2022-07-30T03:40:12;26.38;;;17.45;;
69890;SDS011;57170;43.964;21.262;2022-07-30T03:42:39;20.65;;;18.55;;
69890;SDS011;57170;43.964;21.262;2022-07-30T03:45:05;24.05;;;19.70;;
69890;SDS011;57170;43.964;21.262;2022-07-30T03:47:32;21.33;;;18.23;;
69890;SDS011;57170;43.964;21.262;2022-07-30T03:49:59;21.63;;;19.05;;
69890;SDS011;57170;43.964;21.262;2022-07-30T03:52:26;22.08;;;19.77;;
69890;SDS011;57170;43.964;21.262;2022-07-30T03:54:52;23.67;;;16.63;;
69890;SDS011;57170;43.964;21.262;2022-07-30T03:57:19;19.23;;;17.23;;
69890;SDS011;57170;43.964;21.262;2022-07-30T03:59:45;19.70;;;15.93;;
69890;SDS011;57170;43.964;21.262;2022-07-30T04:02:11;24.17;;;17.60;;
69890;SDS011;57170;43.964;21.262;2022-07-30T04:04:41;19.38;;;15.20;;
69890;SDS011;57170;43.964;21.262;2022-07-30T04:07:07;18.27;;;16.38;;
69890;SDS011;57170;43.964;21.262;2022-07-30T04:09:33;16.92;;;15.32;;
69890;SDS011;57170;43.964;21.262;2022-07-30T04:12:00;18.25;;;16.05;;
69890;SDS011;57170;43.964;21.262;2022-07-30T04:14:26;18.27;;;16.48;;
69890;SDS011;57170;43.964;21.262;2022-07-30T04:16:57;17.23;;;15.52;;
69890;SDS011;57170;43.964;21.262;2022-07-30T04:19:25;18.13;;;15.18;;
69890;SDS011;57170;43.964;21.262;2022-07-30T04:21:53;17.83;;;15.95;;
69890;SDS011;57170;43.964;21.262;2022-07-30T04:24:20;17.60;;;15.88;;
69890;SDS011;57170;43.964;21.262;2022-07-30T04:26:47;15.82;;;14.05;;
69890;SDS011;57170;43.964;21.262;2022-07-30T04:29:13;17.80;;;16.10;;
69890;SDS011;57170;43.964;21.262;2022-07-30T04:31:40;17.42;;;15.32;;
69890;SDS011;57170;43.964;21.262;2022-07-30T04:34:06;16.60;;;14.85;;
69890;SDS011;57170;43.964;21.262;2022-07-30T04:36:33;17.70;;;14.68;;
69890;SDS011;57170;43.964;21.262;2022-07-30T04:39:00;17.13;;;15.23;;
69890;SDS011;57170;43.964;21.262;2022-07-30T04:41:26;17.05;;;15.35;;
69890;SDS011;57170;43.964;21.262;2022-07-30T04:43:52;18.88;;;16.20;;
69890;SDS011;57170;43.964;21.262;2022-07-30T04:46:18;16.17;;;14.52;;
69890;SDS011;57170;43.964;21.262;2022-07-30T04:48:44;16.13;;;14.60;;
69890;SDS011;57170;43.964;21.262;2022-07-30T04:51:12;17.40;;;15.52;;
69890;SDS011;57170;43.964;21.262;2022-07-30T04:53:39;18.60;;;14.77;;
69890;SDS011;57170;43.964;21.262;2022-07-30T04:56:06;16.02;;;14.35;;
69890;SDS011;57170;43.964;21.262;2022-07-30T04:58:33;16.75;;;15.00;;
69890;SDS011;57170;43.964;21.262;2022-07-30T05:01:00;17.42;;;15.68;;
69890;SDS011;57170;43.964;21.262;2022-07-30T05:03:27;14.98;;;13.48;;
69890;SDS011;57170;43.964;21.262;2022-07-30T05:05:57;16.73;;;14.93;;
69890;SDS011;57170;43.964;21.262;2022-07-30T05:08:23;15.25;;;13.75;;
69890;SDS011;57170;43.964;21.262;2022-07-30T05:10:50;16.65;;;15.20;;
69890;SDS011;57170;43.964;21.262;2022-07-30T05:13:16;17.75;;;16.05;;
69890;SDS011;57170;43.964;21.262;2022-07-30T05:15:42;17.65;;;15.70;;
69890;SDS011;57170;43.964;21.262;2022-07-30T05:18:11;16.42;;;14.98;;
69890;SDS011;57170;43.964;21.262;2022-07-30T05:20:37;16.40;;;13.57;;
69890;SDS011;57170;43.964;21.262;2022-07-30T05:23:04;16.95;;;15.23;;
69890;SDS011;57170;43.964;21.262;2022-07-30T05:25:30;19.13;;;16.00;;
69890;SDS011;57170;43.964;21.262;2022-07-30T05:27:56;16.42;;;14.65;;
69890;SDS011;57170;43.964;21.262;2022-07-30T05:30:23;16.27;;;14.70;;
69890;SDS011;57170;43.964;21.262;2022-07-30T05:32:49;16.02;;;14.52;;
69890;SDS011;57170;43.964;21.262;2022-07-30T05:35:15;15.23;;;13.73;;
69890;SDS011;57170;43.964;21.262;2022-07-30T05:37:42;16.75;;;15.25;;
69890;SDS011;57170;43.964;21.262;2022-07-30T05:40:08;14.40;;;13.02;;
69890;SDS011;57170;43.964;21.262;2022-07-30T05:42:34;16.63;;;14.90;;
69890;SDS011;57170;43.964;21.262;2022-07-30T05:45:00;14.98;;;13.45;;
69890;SDS011;57170;43.964;21.262;2022-07-30T05:47:26;14.75;;;13.35;;
69890;SDS011;57170;43.964;21.262;2022-07-30T05:49:52;13.45;;;12.25;;
69890;SDS011;57170;43.964;21.262;2022-07-30T05:52:18;13.60;;;12.35;;
69890;SDS011;57170;43.964;21.262;2022-07-30T05:54:44;14.20;;;12.90;;
69890;SDS011;57170;43.964;21.262;2022-07-30T05:57:11;13.07;;;11.25;;
69890;SDS011;57170;43.964;21.262;2022-07-30T05:59:37;14.07;;;12.65;;
69890;SDS011;57170;43.964;21.262;2022-07-30T06:02:03;12.40;;;11.30;;
69890;SDS011;57170;43.964;21.262;2022-07-30T06:04:30;12.15;;;11.15;;
69890;SDS011;57170;43.964;21.262;2022-07-30T06:06:56;13.35;;;12.05;;
69890;SDS011;57170;43.964;21.262;2022-07-30T06:09:23;15.23;;;12.23;;
69890;SDS011;57170;43.964;21.262;2022-07-30T06:11:49;11.65;;;10.50;;
69890;SDS011;57170;43.964;21.262;2022-07-30T06:14:15;13.13;;;11.60;;
69890;SDS011;57170;43.964;21.262;2022-07-30T06:16:41;13.63;;;12.43;;
69890;SDS011;57170;43.964;21.262;2022-07-30T06:19:07;12.30;;;11.07;;
69890;SDS011;57170;43.964;21.262;2022-07-30T06:21:33;12.05;;;10.85;;
69890;SDS011;57170;43.964;21.262;2022-07-30T06:23:59;12.43;;;11.40;;
69890;SDS011;57170;43.964;21.262;2022-07-30T06:26:25;12.18;;;11.18;;
69890;SDS011;57170;43.964;21.262;2022-07-30T06:28:51;10.63;;;9.73;;
69890;SDS011;57170;43.964;21.262;2022-07-30T06:31:17;12.38;;;8.82;;
69890;SDS011;57170;43.964;21.262;2022-07-30T06:33:44;10.90;;;8.52;;
69890;SDS011;57170;43.964;21.262;2022-07-30T06:36:10;10.23;;;9.20;;
69890;SDS011;57170;43.964;21.262;2022-07-30T06:38:36;10.50;;;9.20;;
69890;SDS011;57170;43.964;21.262;2022-07-30T06:41:02;11.07;;;10.05;;
69890;SDS011;57170;43.964;21.262;2022-07-30T06:43:28;11.13;;;9.55;;
69890;SDS011;57170;43.964;21.262;2022-07-30T06:45:55;10.38;;;9.48;;
69890;SDS011;57170;43.964;21.262;2022-07-30T06:48:22;9.93;;;8.93;;
69890;SDS011;57170;43.964;21.262;2022-07-30T06:50:49;10.98;;;9.32;;
69890;SDS011;57170;43.964;21.262;2022-07-30T06:53:18;10.80;;;9.52;;
69890;SDS011;57170;43.964;21.262;2022-07-30T06:55:44;13.90;;;10.63;;
69890;SDS011;57170;43.964;21.262;2022-07-30T06:58:11;12.38;;;9.95;;
69890;SDS011;57170;43.964;21.262;2022-07-30T07:00:37;10.75;;;9.70;;
69890;SDS011;57170;43.964;21.262;2022-07-30T07:03:03;12.57;;;10.27;;
69890;SDS011;57170;43.964;21.262;2022-07-30T07:05:29;10.90;;;9.90;;
69890;SDS011;57170;43.964;21.262;2022-07-30T07:07:55;15.40;;;13.40;;
69890;SDS011;57170;43.964;21.262;2022-07-30T07:10:21;14.13;;;10.00;;
69890;SDS011;57170;43.964;21.262;2022-07-30T07:12:48;11.25;;;10.18;;
69890;SDS011;57170;43.964;21.262;2022-07-30T07:15:14;10.80;;;9.75;;
69890;SDS011;57170;43.964;21.262;2022-07-30T07:17:40;11.02;;;10.10;;
69890;SDS011;57170;43.964;21.262;2022-07-30T07:20:06;10.73;;;9.82;;
69890;SDS011;57170;43.964;21.262;2022-07-30T07:22:33;10.25;;;9.35;;
69890;SDS011;57170;43.964;21.262;2022-07-30T07:24:59;10.80;;;9.52;;
69890;SDS011;57170;43.964;21.262;2022-07-30T07:27:25;11.20;;;9.90;;
69890;SDS011;57170;43.964;21.262;2022-07-30T07:29:51;10.68;;;9.27;;
69890;SDS011;57170;43.964;21.262;2022-07-30T07:32:17;10.88;;;9.85;;
69890;SDS011;57170;43.964;21.262;2022-07-30T07:34:43;10.90;;;9.77;;
69890;SDS011;57170;43.964;21.262;2022-07-30T07:37:09;19.52;;;10.30;;
69890;SDS011;57170;43.964;21.262;2022-07-30T07:39:35;10.98;;;9.65;;
69890;SDS011;57170;43.964;21.262;2022-07-30T07:42:01;10.75;;;9.70;;
69890;SDS011;57170;43.964;21.262;2022-07-30T07:44:28;9.40;;;8.23;;
69890;SDS011;57170;43.964;21.262;2022-07-30T07:46:54;16.58;;;10.15;;
69890;SDS011;57170;43.964;21.262;2022-07-30T07:49:20;10.50;;;9.38;;
69890;SDS011;57170;43.964;21.262;2022-07-30T07:51:46;10.77;;;9.65;;
69890;SDS011;57170;43.964;21.262;2022-07-30T07:54:12;10.73;;;9.82;;
69890;SDS011;57170;43.964;21.262;2022-07-30T07:56:38;10.65;;;9.73;;
69890;SDS011;57170;43.964;21.262;2022-07-30T07:59:04;10.20;;;9.35;;
69890;SDS011;57170;43.964;21.262;2022-07-30T08:01:30;10.07;;;9.13;;
69890;SDS011;57170;43.964;21.262;2022-07-30T08:03:57;10.68;;;9.60;;
69890;SDS011;57170;43.964;21.262;2022-07-30T08:06:23;9.63;;;8.73;;
69890;SDS011;57170;43.964;21.262;2022-07-30T08:08:49;10.05;;;9.15;;
69890;SDS011;57170;43.964;21.262;2022-07-30T08:11:15;12.45;;;10.02;;
69890;SDS011;57170;43.964;21.262;2022-07-30T08:13:41;10.32;;;8.63;;
69890;SDS011;57170;43.964;21.262;2022-07-30T08:16:08;11.13;;;10.02;;
69890;SDS011;57170;43.964;21.262;2022-07-30T08:18:35;10.82;;;8.73;;
69890;SDS011;57170;43.964;21.262;2022-07-30T08:21:01;15.23;;;9.57;;
69890;SDS011;57170;43.964;21.262;2022-07-30T08:23:27;8.98;;;8.07;;
69890;SDS011;57170;43.964;21.262;2022-07-30T08:25:55;9.70;;;8.70;;
69890;SDS011;57170;43.964;21.262;2022-07-30T08:28:21;11.50;;;9.77;;
69890;SDS011;57170;43.964;21.262;2022-07-30T08:30:47;9.43;;;8.52;;
69890;SDS011;57170;43.964;21.262;2022-07-30T08:33:15;10.35;;;9.27;;
69890;SDS011;57170;43.964;21.262;2022-07-30T08:35:41;9.57;;;8.45;;
69890;SDS011;57170;43.964;21.262;2022-07-30T08:38:07;12.68;;;10.27;;
69890;SDS011;57170;43.964;21.262;2022-07-30T08:40:34;9.80;;;8.88;;
69890;SDS011;57170;43.964;21.262;2022-07-30T08:43:03;10.13;;;9.18;;
69890;SDS011;57170;43.964;21.262;2022-07-30T08:45:30;10.30;;;9.40;;
69890;SDS011;57170;43.964;21.262;2022-07-30T08:47:58;10.07;;;9.07;;
69890;SDS011;57170;43.964;21.262;2022-07-30T08:50:25;11.07;;;10.02;;
69890;SDS011;57170;43.964;21.262;2022-07-30T08:52:52;9.90;;;9.05;;
69890;SDS011;57170;43.964;21.262;2022-07-30T08:55:23;10.90;;;9.88;;
69890;SDS011;57170;43.964;21.262;2022-07-30T08:57:49;10.68;;;9.68;;
69890;SDS011;57170;43.964;21.262;2022-07-30T09:00:16;11.07;;;9.88;;
69890;SDS011;57170;43.964;21.262;2022-07-30T09:02:42;11.73;;;10.63;;
69890;SDS011;57170;43.964;21.262;2022-07-30T09:05:08;10.55;;;9.45;;
69890;SDS011;57170;43.964;21.262;2022-07-30T09:07:35;9.77;;;8.90;;
69890;SDS011;57170;43.964;21.262;2022-07-30T09:10:02;10.55;;;9.50;;
69890;SDS011;57170;43.964;21.262;2022-07-30T09:12:41;10.45;;;9.50;;
69890;SDS011;57170;43.964;21.262;2022-07-30T09:15:18;10.77;;;9.60;;
69890;SDS011;57170;43.964;21.262;2022-07-30T09:17:58;10.45;;;9.55;;
69890;SDS011;57170;43.964;21.262;2022-07-30T09:20:29;10.68;;;9.85;;
69890;SDS011;57170;43.964;21.262;2022-07-30T09:22:57;9.80;;;8.68;;
69890;SDS011;57170;43.964;21.262;2022-07-30T09:25:33;10.13;;;9.32;;
69890;SDS011;57170;43.964;21.262;2022-07-30T09:28:00;10.70;;;8.85;;
69890;SDS011;57170;43.964;21.262;2022-07-30T09:30:27;9.82;;;8.93;;
69890;SDS011;57170;43.964;21.262;2022-07-30T09:35:34;9.07;;;8.23;;
69890;SDS011;57170;43.964;21.262;2022-07-30T09:38:00;11.77;;;9.13;;
69890;SDS011;57170;43.964;21.262;2022-07-30T09:40:28;9.90;;;9.00;;
69890;SDS011;57170;43.964;21.262;2022-07-30T09:43:09;11.07;;;9.98;;
69890;SDS011;57170;43.964;21.262;2022-07-30T09:45:48;8.93;;;8.13;;
69890;SDS011;57170;43.964;21.262;2022-07-30T09:48:21;11.10;;;10.10;;
69890;SDS011;57170;43.964;21.262;2022-07-30T09:50:48;10.50;;;9.50;;
69890;SDS011;57170;43.964;21.262;2022-07-30T09:53:14;10.70;;;9.75;;
69890;SDS011;57170;43.964;21.262;2022-07-30T09:55:40;10.63;;;9.77;;
69890;SDS011;57170;43.964;21.262;2022-07-30T09:58:07;26.10;;;11.82;;
69890;SDS011;57170;43.964;21.262;2022-07-30T10:00:33;14.40;;;9.30;;
69890;SDS011;57170;43.964;21.262;2022-07-30T10:03:00;10.95;;;9.85;;
69890;SDS011;57170;43.964;21.262;2022-07-30T10:05:47;25.02;;;11.13;;
69890;SDS011;57170;43.964;21.262;2022-07-30T10:08:14;10.05;;;9.07;;
69890;SDS011;57170;43.964;21.262;2022-07-30T10:10:40;10.32;;;9.20;;
69890;SDS011;57170;43.964;21.262;2022-07-30T10:13:06;16.42;;;10.23;;
69890;SDS011;57170;43.964;21.262;2022-07-30T10:15:33;9.55;;;8.65;;
69890;SDS011;57170;43.964;21.262;2022-07-30T10:18:00;9.80;;;8.63;;
69890;SDS011;57170;43.964;21.262;2022-07-30T10:20:27;10.75;;;9.65;;
69890;SDS011;57170;43.964;21.262;2022-07-30T10:22:53;12.68;;;9.57;;
69890;SDS011;57170;43.964;21.262;2022-07-30T10:25:20;11.77;;;8.82;;
69890;SDS011;57170;43.964;21.262;2022-07-30T10:27:47;11.80;;;9.95;;
69890;SDS011;57170;43.964;21.262;2022-07-30T10:30:14;10.80;;;9.48;;
69890;SDS011;57170;43.964;21.262;2022-07-30T10:32:40;10.95;;;9.82;;
69890;SDS011;57170;43.964;21.262;2022-07-30T10:35:07;14.13;;;9.45;;
69890;SDS011;57170;43.964;21.262;2022-07-30T10:37:34;11.82;;;9.50;;
69890;SDS011;57170;43.964;21.262;2022-07-30T10:40:04;10.48;;;9.48;;
69890;SDS011;57170;43.964;21.262;2022-07-30T10:47:36;11.00;;;9.90;;
69890;SDS011;57170;43.964;21.262;2022-07-30T10:50:07;13.27;;;10.00;;
69890;SDS011;57170;43.964;21.262;2022-07-30T10:52:44;12.10;;;10.52;;
69890;SDS011;57170;43.964;21.262;2022-07-30T10:55:13;13.13;;;10.63;;
69890;SDS011;57170;43.964;21.262;2022-07-30T10:57:55;14.38;;;9.68;;
69890;SDS011;57170;43.964;21.262;2022-07-30T11:00:22;10.75;;;9.65;;
69890;SDS011;57170;43.964;21.262;2022-07-30T11:05:34;13.25;;;10.32;;
69890;SDS011;57170;43.964;21.262;2022-07-30T11:10:45;11.05;;;9.82;;
69890;SDS011;57170;43.964;21.262;2022-07-30T11:13:11;10.93;;;9.65;;
69890;SDS011;57170;43.964;21.262;2022-07-30T11:18:22;12.50;;;9.90;;
69890;SDS011;57170;43.964;21.262;2022-07-30T11:23:37;10.73;;;9.63;;
69890;SDS011;57170;43.964;21.262;2022-07-30T11:26:03;10.20;;;9.20;;
69890;SDS011;57170;43.964;21.262;2022-07-30T11:30:59;11.18;;;10.00;;
69890;SDS011;57170;43.964;21.262;2022-07-30T11:33:25;9.95;;;9.00;;
69890;SDS011;57170;43.964;21.262;2022-07-30T11:36:03;11.20;;;9.40;;
69890;SDS011;57170;43.964;21.262;2022-07-30T11:38:48;12.35;;;10.10;;
69890;SDS011;57170;43.964;21.262;2022-07-30T11:41:15;11.60;;;9.15;;
69890;SDS011;57170;43.964;21.262;2022-07-30T11:43:41;12.45;;;10.35;;
69890;SDS011;57170;43.964;21.262;2022-07-30T11:46:08;10.93;;;9.80;;
69890;SDS011;57170;43.964;21.262;2022-07-30T11:48:35;10.82;;;9.73;;
69890;SDS011;57170;43.964;21.262;2022-07-30T11:51:02;10.75;;;9.70;;
69890;SDS011;57170;43.964;21.262;2022-07-30T11:53:28;10.63;;;9.63;;
69890;SDS011;57170;43.964;21.262;2022-07-30T11:55:58;9.70;;;8.80;;
69890;SDS011;57170;43.964;21.262;2022-07-30T12:01:11;11.23;;;10.13;;
69890;SDS011;57170;43.964;21.262;2022-07-30T12:03:43;10.88;;;9.27;;
69890;SDS011;57170;43.964;21.262;2022-07-30T12:08:38;11.63;;;10.40;;
69890;SDS011;57170;43.964;21.262;2022-07-30T12:11:05;11.40;;;10.30;;
69890;SDS011;57170;43.964;21.262;2022-07-30T12:13:31;10.63;;;9.57;;
69890;SDS011;57170;43.964;21.262;2022-07-30T12:15:58;10.57;;;9.02;;
69890;SDS011;57170;43.964;21.262;2022-07-30T12:18:24;12.00;;;9.13;;
69890;SDS011;57170;43.964;21.262;2022-07-30T12:20:54;14.95;;;10.93;;
69890;SDS011;57170;43.964;21.262;2022-07-30T12:23:20;9.80;;;8.60;;
69890;SDS011;57170;43.964;21.262;2022-07-30T12:25:47;10.63;;;9.52;;
69890;SDS011;57170;43.964;21.262;2022-07-30T12:28:18;11.50;;;9.52;;
69890;SDS011;57170;43.964;21.262;2022-07-30T12:30:45;12.32;;;9.75;;
69890;SDS011;57170;43.964;21.262;2022-07-30T12:33:11;16.27;;;9.77;;
69890;SDS011;57170;43.964;21.262;2022-07-30T12:35:56;10.85;;;9.27;;
69890;SDS011;57170;43.964;21.262;2022-07-30T12:38:22;12.68;;;9.52;;
69890;SDS011;57170;43.964;21.262;2022-07-30T12:40:58;11.82;;;9.80;;
69890;SDS011;57170;43.964;21.262;2022-07-30T12:43:47;11.23;;;9.35;;
69890;SDS011;57170;43.964;21.262;2022-07-30T12:46:26;10.63;;;7.97;;
69890;SDS011;57170;43.964;21.262;2022-07-30T12:48:54;11.70;;;9.57;;
69890;SDS011;57170;43.964;21.262;2022-07-30T12:51:21;13.25;;;9.63;;
69890;SDS011;57170;43.964;21.262;2022-07-30T12:53:48;9.52;;;8.63;;
69890;SDS011;57170;43.964;21.262;2022-07-30T12:56:16;9.32;;;8.15;;
69890;SDS011;57170;43.964;21.262;2022-07-30T12:58:43;19.52;;;10.40;;
69890;SDS011;57170;43.964;21.262;2022-07-30T13:01:09;16.52;;;10.85;;
69890;SDS011;57170;43.964;21.262;2022-07-30T13:03:36;14.85;;;11.38;;
69890;SDS011;57170;43.964;21.262;2022-07-30T13:06:15;12.68;;;11.30;;
69890;SDS011;57170;43.964;21.262;2022-07-30T13:08:46;11.63;;;10.45;;
69890;SDS011;57170;43.964;21.262;2022-07-30T13:11:12;15.75;;;11.63;;
69890;SDS011;57170;43.964;21.262;2022-07-30T13:13:39;14.00;;;11.27;;
69890;SDS011;57170;43.964;21.262;2022-07-30T13:16:05;14.27;;;11.80;;
69890;SDS011;57170;43.964;21.262;2022-07-30T13:18:33;16.70;;;12.05;;
69890;SDS011;57170;43.964;21.262;2022-07-30T13:20:59;20.75;;;13.90;;
69890;SDS011;57170;43.964;21.262;2022-07-30T13:23:26;18.60;;;10.35;;
69890;SDS011;57170;43.964;21.262;2022-07-30T13:25:53;16.52;;;9.90;;
69890;SDS011;57170;43.964;21.262;2022-07-30T13:28:20;14.15;;;8.50;;
69890;SDS011;57170;43.964;21.262;2022-07-30T13:30:46;10.45;;;8.02;;
69890;SDS011;57170;43.964;21.262;2022-07-30T13:33:13;11.73;;;7.60;;
69890;SDS011;57170;43.964;21.262;2022-07-30T13:35:39;7.65;;;6.85;;
69890;SDS011;57170;43.964;21.262;2022-07-30T13:38:05;8.82;;;6.53;;
69890;SDS011;57170;43.964;21.262;2022-07-30T13:40:32;17.23;;;8.00;;
69890;SDS011;57170;43.964;21.262;2022-07-30T13:42:59;8.15;;;6.68;;
69890;SDS011;57170;43.964;21.262;2022-07-30T13:45:25;8.10;;;7.13;;
69890;SDS011;57170;43.964;21.262;2022-07-30T13:47:51;9.13;;;7.57;;
69890;SDS011;57170;43.964;21.262;2022-07-30T13:50:17;9.15;;;7.90;;
69890;SDS011;57170;43.964;21.262;2022-07-30T13:52:44;9.32;;;7.88;;
69890;SDS011;57170;43.964;21.262;2022-07-30T13:55:10;12.18;;;8.93;;
69890;SDS011;57170;43.964;21.262;2022-07-30T13:57:36;12.95;;;9.65;;
69890;SDS011;57170;43.964;21.262;2022-07-30T14:00:03;10.45;;;9.35;;
69890;SDS011;57170;43.964;21.262;2022-07-30T14:02:30;11.43;;;8.75;;
69890;SDS011;57170;43.964;21.262;2022-07-30T14:04:56;12.82;;;11.00;;
69890;SDS011;57170;43.964;21.262;2022-07-30T14:07:22;20.30;;;10.60;;
69890;SDS011;57170;43.964;21.262;2022-07-30T14:09:48;11.60;;;10.35;;
69890;SDS011;57170;43.964;21.262;2022-07-30T14:12:15;16.88;;;8.27;;
69890;SDS011;57170;43.964;21.262;2022-07-30T14:14:41;11.43;;;9.15;;
69890;SDS011;57170;43.964;21.262;2022-07-30T14:17:07;14.18;;;9.10;;
69890;SDS011;57170;43.964;21.262;2022-07-30T14:19:33;10.38;;;8.30;;
69890;SDS011;57170;43.964;21.262;2022-07-30T14:21:59;10.27;;;8.75;;
69890;SDS011;57170;43.964;21.262;2022-07-30T14:24:25;11.73;;;8.82;;
69890;SDS011;57170;43.964;21.262;2022-07-30T14:26:51;13.75;;;9.35;;
69890;SDS011;57170;43.964;21.262;2022-07-30T14:29:17;14.27;;;9.88;;
69890;SDS011;57170;43.964;21.262;2022-07-30T14:31:43;12.02;;;10.73;;
69890;SDS011;57170;43.964;21.262;2022-07-30T14:34:10;14.73;;;11.35;;
69890;SDS011;57170;43.964;21.262;2022-07-30T14:36:37;12.43;;;10.57;;
69890;SDS011;57170;43.964;21.262;2022-07-30T14:39:03;13.88;;;10.00;;
69890;SDS011;57170;43.964;21.262;2022-07-30T14:41:29;12.27;;;9.48;;
69890;SDS011;57170;43.964;21.262;2022-07-30T14:43:56;15.57;;;10.48;;
69890;SDS011;57170;43.964;21.262;2022-07-30T14:46:22;12.77;;;9.68;;
69890;SDS011;57170;43.964;21.262;2022-07-30T14:48:48;12.07;;;9.77;;